Wetterdaten: Woche 13.07.09 - 19.07.09 (KW29)
Datum Zeit Temp. A. Feuchte A. Luftdruck Regen Wind Richtung Taupunkt Windchill Windben
13.07.2009 00:00 19,1 C 61 % 1013,2 hPa 0,0 l/m 1,9 km/h SW 11,4 C 19,1 C 6,0 km/h
13.07.2009 01:00 18,1 C 65 % 1013,2 hPa 0,0 l/m 0,9 km/h SW 11,5 C 18,1 C 4,8 km/h
13.07.2009 02:00 17,6 C 67 % 1013,2 hPa 0,0 l/m 0,1 km/h N 11,4 C 17,6 C 2,0 km/h
13.07.2009 03:00 16,5 C 73 % 1013,1 hPa 0,0 l/m 0,3 km/h N 11,6 C 16,5 C 2,0 km/h
13.07.2009 04:00 15,5 C 77 % 1013,3 hPa 0,0 l/m 0,0 km/h N 11,4 C 15,5 C 0,8 km/h
13.07.2009 05:00 16,1 C 78 % 1013,7 hPa 0,0 l/m 0,6 km/h W-SW 12,2 C 16,1 C 6,1 km/h
13.07.2009 06:00 19,8 C 70 % 1013,6 hPa 0,0 l/m 1,9 km/h S 14,1 C 19,8 C 10,4 km/h
13.07.2009 07:00 21,1 C 68 % 1013,9 hPa 0,0 l/m 3,3 km/h W-SW 15,0 C 21,1 C 15,7 km/h
13.07.2009 08:00 22,0 C 66 % 1014,1 hPa 0,0 l/m 4,0 km/h SW 15,4 C 22,0 C 15,3 km/h
13.07.2009 09:00 22,6 C 65 % 1013,9 hPa 0,0 l/m 3,7 km/h NW 15,6 C 22,6 C 14,9 km/h
13.07.2009 10:00 22,2 C 67 % 1014,5 hPa 0,0 l/m 3,8 km/h W 15,7 C 22,2 C 12,9 km/h
13.07.2009 11:00 21,8 C 71 % 1014,7 hPa 0,0 l/m 5,7 km/h W-SW 16,2 C 21,6 C 19,7 km/h
13.07.2009 12:00 24,8 C 63 % 1014,2 hPa 0,0 l/m 4,8 km/h S 17,1 C 24,8 C 20,5 km/h
13.07.2009 13:00 26,2 C 58 % 1013,9 hPa 0,0 l/m 4,7 km/h W-SW 17,4 C 26,2 C 15,3 km/h
13.07.2009 14:00 26,9 C 54 % 1014,0 hPa 0,0 l/m 4,2 km/h NW 16,7 C 26,9 C 14,1 km/h
13.07.2009 15:00 27,2 C 52 % 1013,8 hPa 0,0 l/m 3,8 km/h NW 16,3 C 27,2 C 12,5 km/h
13.07.2009 16:00 27,7 C 50 % 1013,8 hPa 0,0 l/m 3,9 km/h NW 16,2 C 27,7 C 11,3 km/h
13.07.2009 17:00 27,6 C 50 % 1013,5 hPa 0,0 l/m 3,7 km/h SO 16,2 C 27,6 C 9,7 km/h
13.07.2009 18:00 27,1 C 52 % 1013,4 hPa 0,0 l/m 1,3 km/h SW 16,5 C 27,1 C 6,8 km/h
13.07.2009 19:00 26,6 C 54 % 1013,6 hPa 0,0 l/m 0,7 km/h N 16,5 C 26,6 C 5,6 km/h
13.07.2009 20:00 24,5 C 65 % 1013,8 hPa 0,0 l/m 0,1 km/h N 17,4 C 24,5 C 0,8 km/h
13.07.2009 21:00 21,7 C 75 % 1014,2 hPa 0,3 l/m 0,1 km/h N 17,0 C 21,7 C 2,0 km/h
13.07.2009 22:00 19,8 C 81 % 1014,5 hPa 0,0 l/m 0,1 km/h N 16,4 C 19,8 C 1,6 km/h
13.07.2009 23:00 19,6 C 81 % 1014,4 hPa 0,0 l/m 0,0 km/h N 16,2 C 19,6 C 0,8 km/h
14.07.2009 00:00 18,8 C 84 % 1014,2 hPa 0,0 l/m 0,0 km/h N 16,1 C 18,8 C 1,2 km/h
14.07.2009 01:00 17,8 C 87 % 1013,8 hPa 0,0 l/m 0,0 km/h N 15,7 C 17,8 C 0,0 km/h
14.07.2009 02:00 16,8 C 91 % 1013,3 hPa 0,0 l/m 0,0 km/h N 15,3 C 16,8 C 0,0 km/h
14.07.2009 03:00 16,4 C 92 % 1012,7 hPa 0,0 l/m 0,0 km/h N 15,1 C 16,4 C 0,4 km/h
14.07.2009 04:00 15,9 C 93 % 1012,6 hPa 0,0 l/m 0,0 km/h N 14,7 C 15,9 C 0,0 km/h
14.07.2009 05:00 15,7 C 93 % 1012,5 hPa 0,0 l/m 0,0 km/h N 14,6 C 15,7 C 0,0 km/h
14.07.2009 06:00 16,6 C 93 % 1012,6 hPa 0,0 l/m 0,0 km/h N 15,5 C 16,6 C 0,0 km/h
14.07.2009 07:00 19,2 C 87 % 1012,5 hPa 0,0 l/m 0,0 km/h N 17,0 C 19,2 C 0,8 km/h
14.07.2009 08:00 21,2 C 83 % 1012,5 hPa 0,0 l/m 0,0 km/h N 18,1 C 21,2 C 3,2 km/h
14.07.2009 09:00 23,3 C 77 % 1012,5 hPa 0,0 l/m 0,0 km/h O 18,9 C 23,3 C 4,8 km/h
14.07.2009 10:00 25,8 C 70 % 1012,4 hPa 0,0 l/m 1,6 km/h O 19,7 C 25,8 C 8,1 km/h
14.07.2009 11:00 26,9 C 66 % 1013,0 hPa 0,0 l/m 1,6 km/h O 19,9 C 26,9 C 5,6 km/h
14.07.2009 12:00 27,9 C 64 % 1013,0 hPa 0,0 l/m 1,6 km/h O 20,4 C 27,9 C 7,2 km/h
14.07.2009 13:00 29,3 C 57 % 1012,8 hPa 0,0 l/m 1,6 km/h NO 19,9 C 29,3 C 5,6 km/h
14.07.2009 14:00 30,8 C 55 % 1012,7 hPa 0,0 l/m 1,6 km/h W-SW 20,5 C 30,8 C 8,1 km/h
14.07.2009 15:00 32,4 C 48 % 1012,5 hPa 0,0 l/m 2,4 km/h S 19,9 C 32,4 C 14,5 km/h
14.07.2009 16:00 32,0 C 49 % 1012,7 hPa 0,0 l/m 3,2 km/h N-NW 19,9 C 32,0 C 12,1 km/h
14.07.2009 17:00 32,3 C 47 % 1012,5 hPa 0,0 l/m 1,6 km/h S-SW 19,5 C 32,3 C 12,9 km/h
14.07.2009 18:00 31,5 C 51 % 1012,7 hPa 0,0 l/m 1,6 km/h SW 19,9 C 31,5 C 8,9 km/h
14.07.2009 19:00 30,7 C 51 % 1012,6 hPa 0,0 l/m 1,6 km/h S-SW 19,3 C 30,7 C 8,0 km/h
14.07.2009 20:00 28,7 C 59 % 1013,0 hPa 0,0 l/m 0,0 km/h N 19,8 C 28,7 C 2,4 km/h
14.07.2009 21:00 26,0 C 71 % 1013,6 hPa 0,0 l/m 0,0 km/h N 20,4 C 26,0 C 0,8 km/h
14.07.2009 22:00 25,0 C 74 % 1013,9 hPa 0,0 l/m 0,0 km/h N 20,0 C 25,0 C 2,4 km/h
14.07.2009 23:00 24,0 C 74 % 1014,0 hPa 0,0 l/m 0,0 km/h N 18,9 C 24,0 C 3,2 km/h
15.07.2009 00:00 23,5 C 77 % 1014,7 hPa 0,0 l/m 0,0 km/h N 19,1 C 23,5 C 3,2 km/h
15.07.2009 01:00 23,5 C 74 % 1015,3 hPa 0,0 l/m 0,8 km/h N-NO 18,5 C 23,5 C 5,6 km/h
15.07.2009 02:00 22,5 C 74 % 1015,7 hPa 0,0 l/m 0,0 km/h N 17,6 C 22,5 C 3,2 km/h
15.07.2009 03:00 21,0 C 81 % 1015,1 hPa 0,0 l/m 0,0 km/h N 17,6 C 21,0 C 0,8 km/h
15.07.2009 04:00 20,3 C 84 % 1015,0 hPa 0,0 l/m 0,0 km/h N 17,4 C 20,3 C 0,8 km/h
15.07.2009 05:00 19,7 C 86 % 1015,4 hPa 0,0 l/m 0,0 km/h N 17,3 C 19,7 C 1,6 km/h
15.07.2009 06:00 20,2 C 86 % 1015,3 hPa 0,0 l/m 0,0 km/h N 17,8 C 20,2 C 0,0 km/h
15.07.2009 07:00 21,9 C 81 % 1015,5 hPa 0,0 l/m 0,0 km/h N 18,5 C 21,9 C 0,8 km/h
15.07.2009 08:00 23,5 C 80 % 1015,7 hPa 0,0 l/m 0,0 km/h N 19,9 C 23,5 C 1,6 km/h
15.07.2009 09:00 25,0 C 79 % 1016,0 hPa 0,0 l/m 0,8 km/h NO 21,1 C 25,0 C 3,2 km/h
15.07.2009 10:00 26,6 C 71 % 1016,0 hPa 0,0 l/m 0,8 km/h N 20,9 C 26,6 C 4,8 km/h
15.07.2009 11:00 28,4 C 63 % 1016,5 hPa 0,0 l/m 0,8 km/h NW 20,6 C 28,4 C 5,6 km/h
15.07.2009 12:00 28,1 C 66 % 1016,7 hPa 0,0 l/m 4,0 km/h NW 21,1 C 28,1 C 10,5 km/h
15.07.2009 13:00 29,2 C 61 % 1016,8 hPa 0,0 l/m 4,0 km/h NW 20,9 C 29,2 C 16,9 km/h
15.07.2009 14:00 30,0 C 60 % 1016,3 hPa 0,0 l/m 2,4 km/h W-SW 21,3 C 30,0 C 12,1 km/h
15.07.2009 15:00 29,0 C 62 % 1015,9 hPa 0,0 l/m 0,7 km/h N 21,0 C 29,0 C 5,2 km/h
15.07.2009 16:00 30,1 C 59 % 1015,6 hPa 0,0 l/m 1,2 km/h S 21,2 C 30,1 C 6,8 km/h
15.07.2009 17:00 29,2 C 62 % 1015,6 hPa 0,0 l/m 0,5 km/h SW 21,1 C 29,2 C 4,8 km/h
15.07.2009 18:00 28,2 C 64 % 1016,1 hPa 0,0 l/m 1,7 km/h SW 20,7 C 28,2 C 10,1 km/h
15.07.2009 19:00 26,6 C 69 % 1016,5 hPa 0,0 l/m 3,7 km/h S 20,3 C 26,6 C 18,1 km/h
15.07.2009 20:00 23,1 C 82 % 1017,5 hPa 1,9 l/m 3,2 km/h N-NW 19,8 C 23,1 C 13,7 km/h
15.07.2009 21:00 21,4 C 86 % 1018,0 hPa 1,3 l/m 1,9 km/h O-NO 18,9 C 21,4 C 9,2 km/h
15.07.2009 22:00 21,2 C 86 % 1019,7 hPa 0,0 l/m 0,3 km/h N 18,7 C 21,2 C 3,6 km/h
15.07.2009 23:00 21,1 C 86 % 1019,3 hPa 0,0 l/m 0,7 km/h N 18,7 C 21,1 C 3,6 km/h
16.07.2009 00:00 21,5 C 84 % 1019,3 hPa 0,0 l/m 0,2 km/h N 18,6 C 21,5 C 2,1 km/h
16.07.2009 01:00 21,8 C 81 % 1019,4 hPa 0,0 l/m 0,8 km/h N-NW 18,4 C 21,8 C 5,6 km/h
16.07.2009 02:00 21,5 C 83 % 1019,8 hPa 0,0 l/m 1,6 km/h N-NW 18,4 C 21,5 C 5,6 km/h
16.07.2009 03:00 21,3 C 83 % 1019,8 hPa 0,0 l/m 0,0 km/h N 18,2 C 21,3 C 6,4 km/h
16.07.2009 04:00 21,3 C 82 % 1019,8 hPa 0,0 l/m 0,1 km/h N 18,1 C 21,3 C 4,8 km/h
16.07.2009 05:00 20,6 C 85 % 1020,3 hPa 0,0 l/m 0,3 km/h N 17,9 C 20,6 C 2,4 km/h
16.07.2009 06:00 20,9 C 86 % 1020,7 hPa 0,0 l/m 0,6 km/h N-NW 18,3 C 20,9 C 3,2 km/h
16.07.2009 07:00 21,9 C 82 % 1021,0 hPa 0,0 l/m 3,3 km/h NW 18,6 C 21,9 C 9,7 km/h
16.07.2009 08:00 22,6 C 77 % 1021,4 hPa 0,0 l/m 4,3 km/h NW 18,3 C 22,6 C 10,1 km/h
16.07.2009 09:00 23,3 C 72 % 1021,4 hPa 0,0 l/m 5,8 km/h NW 17,8 C 23,3 C 11,3 km/h
16.07.2009 10:00 24,5 C 68 % 1021,3 hPa 0,0 l/m 5,4 km/h NW 18,2 C 24,5 C 13,3 km/h
16.07.2009 11:00 26,0 C 61 % 1021,2 hPa 0,0 l/m 5,4 km/h N-NW 17,9 C 26,0 C 13,7 km/h
16.07.2009 12:00 27,3 C 58 % 1020,9 hPa 0,0 l/m 4,5 km/h N-NO 18,2 C 27,3 C 12,5 km/h
16.07.2009 13:00 28,1 C 55 % 1020,6 hPa 0,0 l/m 4,5 km/h N-NW 18,2 C 28,1 C 13,7 km/h
16.07.2009 14:00 28,8 C 52 % 1020,0 hPa 0,0 l/m 4,7 km/h NW 18,0 C 28,8 C 12,1 km/h
16.07.2009 15:00 29,3 C 51 % 1019,8 hPa 0,0 l/m 3,6 km/h N-NW 17,9 C 29,3 C 9,3 km/h
16.07.2009 16:00 29,5 C 48 % 1019,4 hPa 0,0 l/m 2,7 km/h N-NO 17,4 C 29,5 C 8,0 km/h
16.07.2009 17:00 29,3 C 50 % 1019,1 hPa 0,0 l/m 2,3 km/h N-NW 17,7 C 29,3 C 8,9 km/h
16.07.2009 18:00 28,6 C 51 % 1018,8 hPa 0,0 l/m 1,9 km/h N 17,4 C 28,6 C 6,0 km/h
16.07.2009 19:00 28,0 C 54 % 1018,5 hPa 0,0 l/m 0,4 km/h N 17,8 C 28,0 C 2,8 km/h
16.07.2009 20:00 25,9 C 65 % 1018,4 hPa 0,0 l/m 0,1 km/h N 18,8 C 25,9 C 1,2 km/h
16.07.2009 21:00 24,1 C 71 % 1018,6 hPa 0,0 l/m 0,1 km/h N 18,6 C 24,1 C 1,6 km/h
16.07.2009 22:00 22,4 C 76 % 1018,5 hPa 0,0 l/m 0,1 km/h N 18,0 C 22,4 C 2,4 km/h
16.07.2009 23:00 21,5 C 80 % 1018,3 hPa 0,0 l/m 0,1 km/h N 17,8 C 21,5 C 2,4 km/h
17.07.2009 00:00 20,8 C 81 % 1017,8 hPa 0,0 l/m 0,1 km/h N 17,5 C 20,8 C 2,0 km/h
17.07.2009 01:00 20,1 C 83 % 1017,4 hPa 0,0 l/m 0,0 km/h N 17,1 C 20,1 C 0,4 km/h
17.07.2009 02:00 19,5 C 86 % 1017,0 hPa 0,0 l/m 0,0 km/h N 17,1 C 19,5 C 0,0 km/h
17.07.2009 03:00 19,1 C 88 % 1016,4 hPa 0,0 l/m 0,0 km/h N 16,9 C 19,1 C 0,4 km/h
17.07.2009 04:00 18,4 C 89 % 1015,8 hPa 0,0 l/m 0,0 km/h N 16,4 C 18,4 C 0,0 km/h
17.07.2009 05:00 17,8 C 91 % 1015,5 hPa 0,0 l/m 0,0 km/h N 16,2 C 17,8 C 0,0 km/h
17.07.2009 06:00 19,0 C 88 % 1015,2 hPa 0,0 l/m 0,0 km/h N 17,0 C 19,0 C 0,0 km/h
17.07.2009 07:00 21,8 C 77 % 1014,7 hPa 0,0 l/m 0,1 km/h N 17,5 C 21,8 C 2,8 km/h
17.07.2009 08:00 23,3 C 70 % 1014,3 hPa 0,0 l/m 0,5 km/h N 17,5 C 23,3 C 3,6 km/h
17.07.2009 09:00 24,9 C 65 % 1013,5 hPa 0,0 l/m 0,9 km/h O 17,8 C 24,9 C 5,2 km/h
17.07.2009 10:00 25,6 C 64 % 1013,3 hPa 0,0 l/m 0,1 km/h O-NO 18,3 C 25,6 C 1,6 km/h
17.07.2009 11:00 28,1 C 58 % 1012,6 hPa 0,0 l/m 2,2 km/h O 18,9 C 28,1 C 4,8 km/h
17.07.2009 12:00 28,5 C 57 % 1012,3 hPa 0,0 l/m 3,1 km/h O-NO 19,1 C 28,5 C 6,4 km/h
17.07.2009 13:00 30,8 C 46 % 1010,9 hPa 0,0 l/m 4,6 km/h O-NO 17,8 C 30,8 C 8,0 km/h
17.07.2009 14:00 32,0 C 43 % 1010,0 hPa 0,0 l/m 4,8 km/h SO 17,6 C 31,9 C 8,9 km/h
17.07.2009 17:00 32,2 C 40 % 1007,5 hPa 0,0 l/m 2,3 km/h N-NO 17,0 C 32,2 C 10,2 km/h
17.07.2009 18:00 31,4 C 43 % 1006,9 hPa 0,0 l/m 2,3 km/h O 17,2 C 31,4 C 11,3 km/h
17.07.2009 19:00 30,1 C 48 % 1006,4 hPa 0,0 l/m 1,7 km/h O 17,8 C 30,1 C 10,9 km/h
17.07.2009 20:00 28,6 C 52 % 1006,5 hPa 0,0 l/m 0,8 km/h N 17,7 C 28,6 C 5,6 km/h
17.07.2009 21:00 26,9 C 59 % 1006,4 hPa 0,0 l/m 0,4 km/h S-SO 18,1 C 26,9 C 5,2 km/h
17.07.2009 22:00 26,5 C 59 % 1006,1 hPa 0,0 l/m 3,5 km/h S 17,8 C 26,5 C 11,3 km/h
17.07.2009 23:00 25,3 C 64 % 1005,5 hPa 0,0 l/m 2,4 km/h S 17,9 C 25,3 C 8,9 km/h
18.07.2009 00:00 24,9 C 66 % 1004,9 hPa 0,0 l/m 2,1 km/h S-SO 18,1 C 24,9 C 10,5 km/h
18.07.2009 01:00 24,0 C 69 % 1004,4 hPa 0,0 l/m 0,6 km/h S 17,9 C 24,0 C 4,4 km/h
18.07.2009 02:00 24,1 C 68 % 1004,0 hPa 0,0 l/m 2,1 km/h S 17,8 C 24,1 C 9,3 km/h
18.07.2009 03:00 22,6 C 68 % 1004,9 hPa 0,0 l/m 3,6 km/h N-NO 16,4 C 22,6 C 14,1 km/h
18.07.2009 04:00 20,0 C 69 % 1005,7 hPa 0,0 l/m 3,0 km/h S 14,0 C 20,0 C 15,3 km/h
18.07.2009 05:00 18,6 C 67 % 1006,4 hPa 0,0 l/m 5,1 km/h W-SW 12,3 C 18,6 C 18,9 km/h
18.07.2009 06:00 18,2 C 67 % 1007,0 hPa 0,0 l/m 5,8 km/h O-SO 11,9 C 18,1 C 21,3 km/h
18.07.2009 07:00 18,0 C 67 % 1007,0 hPa 0,0 l/m 6,5 km/h W-SW 11,7 C 17,8 C 25,8 km/h
18.07.2009 08:00 17,6 C 69 % 1007,0 hPa 0,0 l/m 6,2 km/h S 11,9 C 17,3 C 25,4 km/h
18.07.2009 09:00 15,5 C 84 % 1007,8 hPa 10,2 l/m 2,2 km/h S-SO 12,9 C 15,5 C 10,9 km/h
18.07.2009 10:00 15,5 C 85 % 1007,3 hPa 0,0 l/m 3,6 km/h N-NO 12,9 C 15,5 C 16,1 km/h
18.07.2009 11:00 15,1 C 82 % 1007,3 hPa 0,0 l/m 6,1 km/h W-NW 11,9 C 14,8 C 24,1 km/h
18.07.2009 12:00 13,4 C 85 % 1007,7 hPa 6,7 l/m 7,2 km/h S 10,8 C 12,6 C 27,4 km/h
18.07.2009 13:00 12,5 C 86 % 1008,0 hPa 6,4 l/m 8,2 km/h N-NO 10,1 C 11,3 C 28,1 km/h
18.07.2009 14:00 11,7 C 86 % 1008,6 hPa 6,4 l/m 12,9 km/h W-SW 9,4 C 8,0 C 36,6 km/h
18.07.2009 15:00 12,1 C 83 % 1009,0 hPa 1,0 l/m 10,8 km/h W-SW 9,4 C 9,6 C 36,6 km/h
18.07.2009 16:00 13,0 C 80 % 1008,5 hPa 0,0 l/m 6,1 km/h N-NW 9,6 C 12,8 C 20,9 km/h
18.07.2009 17:00 13,1 C 79 % 1009,1 hPa 0,3 l/m 5,1 km/h SO 9,6 C 13,1 C 22,9 km/h
18.07.2009 18:00 13,8 C 76 % 1008,8 hPa 0,0 l/m 10,4 km/h SW 9,6 C 11,7 C 34,6 km/h
18.07.2009 19:00 14,2 C 75 % 1009,5 hPa 0,0 l/m 7,8 km/h SO 9,9 C 13,4 C 31,4 km/h
18.07.2009 20:00 14,3 C 74 % 1010,0 hPa 0,0 l/m 8,6 km/h SW 9,8 C 13,1 C 28,6 km/h
18.07.2009 21:00 14,3 C 75 % 1010,8 hPa 0,0 l/m 7,6 km/h SW 10,0 C 13,7 C 30,6 km/h
18.07.2009 22:00 14,3 C 75 % 1011,2 hPa 0,0 l/m 6,3 km/h NW 10,0 C 14,0 C 23,3 km/h
18.07.2009 23:00 14,4 C 76 % 1011,8 hPa 0,0 l/m 6,3 km/h S-SO 10,1 C 14,2 C 21,7 km/h
19.07.2009 00:00 14,4 C 76 % 1012,0 hPa 0,0 l/m 7,0 km/h NW 10,3 C 14,1 C 29,0 km/h
19.07.2009 01:00 14,5 C 77 % 1012,4 hPa 0,0 l/m 6,3 km/h O-SO 10,5 C 14,4 C 20,9 km/h
19.07.2009 02:00 14,8 C 77 % 1012,6 hPa 0,0 l/m 5,0 km/h W 10,8 C 14,8 C 18,5 km/h
19.07.2009 03:00 14,9 C 76 % 1012,8 hPa 0,0 l/m 5,7 km/h NW 10,7 C 14,9 C 24,5 km/h
19.07.2009 04:00 15,0 C 76 % 1013,2 hPa 0,0 l/m 6,4 km/h NW 10,7 C 14,8 C 22,5 km/h
19.07.2009 05:00 14,9 C 76 % 1013,7 hPa 0,0 l/m 6,4 km/h NW 10,6 C 14,8 C 25,3 km/h
19.07.2009 06:00 15,1 C 73 % 1014,0 hPa 0,0 l/m 8,3 km/h W-SW 10,3 C 14,1 C 24,5 km/h
19.07.2009 07:00 15,8 C 71 % 1014,3 hPa 0,0 l/m 7,7 km/h NW 10,5 C 15,1 C 25,8 km/h
19.07.2009 08:00 16,5 C 68 % 1015,0 hPa 0,0 l/m 6,8 km/h NO 10,5 C 16,2 C 24,9 km/h
19.07.2009 09:00 17,6 C 65 % 1015,5 hPa 0,0 l/m 7,3 km/h W-SW 11,0 C 17,2 C 27,0 km/h
19.07.2009 10:00 18,7 C 62 % 1015,9 hPa 0,0 l/m 7,1 km/h S 11,2 C 18,4 C 22,5 km/h
19.07.2009 11:00 20,1 C 57 % 1016,3 hPa 0,0 l/m 6,2 km/h W 11,3 C 19,9 C 20,9 km/h
19.07.2009 12:00 20,9 C 51 % 1016,4 hPa 0,0 l/m 7,3 km/h N 10,4 C 20,5 C 23,3 km/h
19.07.2009 13:00 21,8 C 49 % 1016,5 hPa 0,0 l/m 6,7 km/h S-SO 10,6 C 21,6 C 24,5 km/h
19.07.2009 14:00 22,4 C 47 % 1016,5 hPa 0,0 l/m 6,7 km/h SW 10,5 C 22,3 C 27,3 km/h
19.07.2009 15:00 22,6 C 45 % 1016,6 hPa 0,0 l/m 6,7 km/h SW 10,0 C 22,4 C 22,1 km/h
19.07.2009 16:00 21,8 C 50 % 1016,9 hPa 0,0 l/m 5,8 km/h O-SO 10,8 C 21,8 C 20,5 km/h
19.07.2009 17:00 21,5 C 50 % 1017,0 hPa 0,0 l/m 4,6 km/h W 10,6 C 21,5 C 20,1 km/h
19.07.2009 18:00 21,3 C 50 % 1017,1 hPa 0,0 l/m 4,5 km/h NW 10,5 C 21,3 C 16,1 km/h
19.07.2009 19:00 20,8 C 51 % 1017,2 hPa 0,0 l/m 3,4 km/h S-SO 10,3 C 20,8 C 12,1 km/h
19.07.2009 20:00 19,4 C 57 % 1017,6 hPa 0,0 l/m 0,6 km/h N 10,6 C 19,4 C 4,4 km/h
19.07.2009 21:00 17,5 C 66 % 1018,0 hPa 0,0 l/m 0,5 km/h S-SW 10,9 C 17,5 C 3,6 km/h
19.07.2009 22:00 16,1 C 72 % 1018,5 hPa 0,0 l/m 1,2 km/h S-SW 11,0 C 16,1 C 6,0 km/h
19.07.2009 23:00 15,4 C 74 % 1018,8 hPa 0,0 l/m 0,7 km/h S 10,9 C 15,4 C 5,6 km/h
Min-Datum _ 18.07.09 17.07.09 18.07.09 - 13.07.09 - 18.07.09 18.07.09 13.07.09
_ Min-Zeit 14:15 17:07 02:30 - 01:45 - 15:30 14:30 03:30
Minimum _ 11,6 C 39 % 1003,4 hPa - 0,0 km/h - 9,2 C 7,7 C 0,0 km/h
Max-Datum _ 14.07.09 14.07.09 16.07.09 18.07.09 18.07.09 - 15.07.09 14.07.09 18.07.09
_ Max-Zeit 15:30 04:30 08:15 09:00 14:30 - 16:45 15:30 18:30
Maximum _ 32,9 C 93 % 1021,5 hPa 10,2 l/m 13,7 km/h
W-SW
- 21,6 C 32,6 C 46,7 km/h
SW
Durchschnitt _ 22,2 C 69 % 1014,0 hPa #34,6 l/m 2,7 km/h NW 15,9 C 22,1 C 10,6 km/h